Time;durP1;ratioP1;P1;durP2;ratioP2;P2;SDS_P1;SDS_P2;PMS_P1;PMS_P2;Temp;Humidity;BMP_temperature;BMP_pressure;BME280_temperature;BME280_humidity;BME280_pressure;Samples;Min_cycle;Max_cycle;Signal;HPM_P1;HPM_P2
2022/05/02 00:00:53;;;;;;;3.47;2.38;;;;;;;;;;5072956;28;20228;-79
2022/05/02 00:03:21;;;;;;;3.95;2.58;;;;;;;;;;5072423;28;20197;-80
2022/05/02 00:05:50;;;;;;;3.03;2.13;;;;;;;;;;5074291;28;20579;-79
2022/05/02 00:08:17;;;;;;;2.80;2.30;;;;;;;;;;5073668;28;20201;-79
2022/05/02 00:10:44;;;;;;;2.25;2.03;;;;;;;;;;5074541;28;20216;-79
2022/05/02 00:13:11;;;;;;;2.10;1.90;;;;;;;;;;5066690;28;20193;-80
2022/05/02 00:15:39;;;;;;;2.55;2.35;;;;;;;;;;5074233;28;20219;-80
2022/05/02 00:18:08;;;;;;;2.15;2.05;;;;;;;;;;5074589;28;20200;-81
2022/05/02 00:20:37;;;;;;;2.95;2.35;;;;;;;;;;5073366;28;20574;-81
2022/05/02 00:23:07;;;;;;;2.97;2.15;;;;;;;;;;5074171;28;20254;-79
2022/05/02 00:25:35;;;;;;;2.53;2.33;;;;;;;;;;5073783;28;20201;-80
2022/05/02 00:28:04;;;;;;;2.60;2.40;;;;;;;;;;5074100;28;20215;-79
2022/05/02 00:30:32;;;;;;;2.65;2.45;;;;;;;;;;5075189;28;20216;-81
2022/05/02 00:33:00;;;;;;;2.53;2.30;;;;;;;;;;5073673;28;20722;-80
2022/05/02 00:35:27;;;;;;;2.17;2.08;;;;;;;;;;5074959;28;20583;-80
2022/05/02 00:37:55;;;;;;;2.03;1.92;;;;;;;;;;5075122;28;20213;-80
2022/05/02 00:40:24;;;;;;;2.00;1.90;;;;;;;;;;5070709;28;20270;-80
2022/05/02 00:42:52;;;;;;;2.47;2.28;;;;;;;;;;5073039;28;20200;-79
2022/05/02 00:45:21;;;;;;;1.60;1.50;;;;;;;;;;5074316;28;20197;-80
2022/05/02 00:47:53;;;;;;;2.00;1.90;;;;;;;;;;5073791;28;20204;-80
2022/05/02 00:50:33;;;;;;;1.85;1.75;;;;;;;;;;5073785;28;20274;-80
2022/05/02 00:53:01;;;;;;;1.98;1.77;;;;;;;;;;5071964;28;20211;-79
2022/05/02 00:55:31;;;;;;;6.18;1.90;;;;;;;;;;5074449;28;20216;-79
2022/05/02 00:58:00;;;;;;;1.73;1.60;;;;;;;;;;5074014;28;20292;-79
2022/05/02 01:00:27;;;;;;;1.77;1.67;;;;;;;;;;5073972;28;20213;-79
2022/05/02 01:02:54;;;;;;;1.88;1.77;;;;;;;;;;5072854;28;20205;-79
2022/05/02 01:05:22;;;;;;;2.20;2.10;;;;;;;;;;5072670;28;20292;-79
2022/05/02 01:07:48;;;;;;;2.40;2.20;;;;;;;;;;5072459;28;20243;-79
2022/05/02 01:10:17;;;;;;;2.00;1.90;;;;;;;;;;5071931;28;20219;-80
2022/05/02 01:12:48;;;;;;;2.50;2.30;;;;;;;;;;5073127;28;20234;-80
2022/05/02 01:15:17;;;;;;;2.10;1.90;;;;;;;;;;5058986;28;21998;-79
2022/05/02 01:17:44;;;;;;;2.47;2.28;;;;;;;;;;5074477;28;20205;-79
2022/05/02 01:20:14;;;;;;;1.75;1.65;;;;;;;;;;5072654;28;20221;-79
2022/05/02 01:22:42;;;;;;;3.30;3.00;;;;;;;;;;5071395;28;20204;-79
2022/05/02 01:25:11;;;;;;;2.33;2.13;;;;;;;;;;5072773;28;20339;-80
2022/05/02 01:27:38;;;;;;;2.33;2.17;;;;;;;;;;5074390;28;20205;-80
2022/05/02 01:30:08;;;;;;;2.40;2.13;;;;;;;;;;5074417;28;20225;-80
2022/05/02 01:32:35;;;;;;;2.20;2.00;;;;;;;;;;5074199;28;20205;-79
2022/05/02 01:35:02;;;;;;;2.28;2.08;;;;;;;;;;5072133;28;20201;-80
2022/05/02 01:37:31;;;;;;;2.08;1.80;;;;;;;;;;5073066;28;20201;-79
2022/05/02 01:39:58;;;;;;;2.25;1.80;;;;;;;;;;5072201;28;20215;-79
2022/05/02 01:42:25;;;;;;;2.45;2.25;;;;;;;;;;5072637;28;20211;-79
2022/05/02 01:44:52;;;;;;;2.00;1.90;;;;;;;;;;5073385;28;20204;-79
2022/05/02 01:47:20;;;;;;;2.72;2.50;;;;;;;;;;5074312;28;20201;-79
2022/05/02 01:49:47;;;;;;;2.55;2.35;;;;;;;;;;5073508;28;20209;-80
2022/05/02 01:52:14;;;;;;;2.72;2.20;;;;;;;;;;5060733;28;20197;-79
2022/05/02 01:54:43;;;;;;;2.70;2.50;;;;;;;;;;5076332;28;20197;-80
2022/05/02 01:57:10;;;;;;;2.50;2.30;;;;;;;;;;5076812;28;20747;-80
2022/05/02 01:59:37;;;;;;;3.15;2.53;;;;;;;;;;5074721;28;20204;-79
2022/05/02 02:02:05;;;;;;;4.07;2.60;;;;;;;;;;5074851;28;20196;-80
2022/05/02 02:07:17;;;;;;;2.97;2.67;;;;;;;;;;5076450;28;20581;-80
2022/05/02 02:09:45;;;;;;;6.80;3.33;;;;;;;;;;5074527;28;20666;-79
2022/05/02 02:12:13;;;;;;;4.50;2.78;;;;;;;;;;5066027;28;20201;-80
2022/05/02 02:14:40;;;;;;;2.80;2.38;;;;;;;;;;5075146;28;20223;-80
2022/05/02 02:17:07;;;;;;;3.05;2.85;;;;;;;;;;5075690;28;20213;-79
2022/05/02 02:19:34;;;;;;;3.10;2.90;;;;;;;;;;5073284;28;20199;-79
2022/05/02 02:24:46;;;;;;;3.45;3.20;;;;;;;;;;5071120;28;20208;-79
2022/05/02 02:27:13;;;;;;;3.22;2.60;;;;;;;;;;5074898;28;20279;-80
2022/05/02 02:29:41;;;;;;;2.95;2.65;;;;;;;;;;5074595;28;20201;-79
2022/05/02 02:32:09;;;;;;;3.05;2.85;;;;;;;;;;5073185;28;20209;-79
2022/05/02 02:34:36;;;;;;;3.28;3.03;;;;;;;;;;5065411;28;20205;-80
2022/05/02 02:37:04;;;;;;;3.17;2.92;;;;;;;;;;5074777;28;20213;-80
2022/05/02 02:39:31;;;;;;;2.63;2.42;;;;;;;;;;5074794;28;20208;-80
2022/05/02 02:42:00;;;;;;;3.70;3.03;;;;;;;;;;5074463;28;20208;-79
2022/05/02 02:44:27;;;;;;;3.35;3.03;;;;;;;;;;5076069;28;20204;-79
2022/05/02 02:46:55;;;;;;;3.28;3.00;;;;;;;;;;5075879;28;20201;-79
2022/05/02 02:49:22;;;;;;;3.83;3.13;;;;;;;;;;5073558;28;20200;-79
2022/05/02 02:51:49;;;;;;;3.67;2.95;;;;;;;;;;5075831;28;20220;-79
2022/05/02 02:54:16;;;;;;;3.50;3.08;;;;;;;;;;5075211;28;20193;-79
2022/05/02 02:56:44;;;;;;;2.55;2.35;;;;;;;;;;5075200;28;20217;-79
2022/05/02 02:59:12;;;;;;;3.28;2.97;;;;;;;;;;5073313;28;20201;-80
2022/05/02 03:01:39;;;;;;;3.40;3.20;;;;;;;;;;5075650;28;20213;-79
2022/05/02 03:06:49;;;;;;;3.25;2.95;;;;;;;;;;5072762;28;20280;-79
2022/05/02 03:09:16;;;;;;;4.80;3.30;;;;;;;;;;5075230;28;20197;-79
2022/05/02 03:11:44;;;;;;;2.95;2.75;;;;;;;;;;5074141;28;20708;-79
2022/05/02 03:14:12;;;;;;;3.20;2.90;;;;;;;;;;5074672;28;20200;-79
2022/05/02 03:16:40;;;;;;;3.42;3.22;;;;;;;;;;5075291;28;20220;-79
2022/05/02 03:19:07;;;;;;;5.45;3.75;;;;;;;;;;5073677;28;20197;-79
2022/05/02 03:21:34;;;;;;;4.20;3.90;;;;;;;;;;5073094;28;20227;-80
2022/05/02 03:24:01;;;;;;;4.30;3.88;;;;;;;;;;5074603;28;20561;-79
2022/05/02 03:26:29;;;;;;;6.10;4.28;;;;;;;;;;5075060;28;20205;-79
2022/05/02 03:28:56;;;;;;;4.85;3.65;;;;;;;;;;5075314;28;20190;-79
2022/05/02 03:31:25;;;;;;;3.92;2.75;;;;;;;;;;5075324;28;20225;-80
2022/05/02 03:33:52;;;;;;;4.15;3.10;;;;;;;;;;5071959;28;20193;-79
2022/05/02 03:36:19;;;;;;;3.25;2.97;;;;;;;;;;5054912;28;20202;-79
2022/05/02 03:38:47;;;;;;;4.28;3.88;;;;;;;;;;5063932;28;20201;-79
2022/05/02 03:41:14;;;;;;;3.78;3.47;;;;;;;;;;5073855;28;20766;-79
2022/05/02 03:43:42;;;;;;;3.65;3.35;;;;;;;;;;5072362;28;20200;-79
2022/05/02 03:46:09;;;;;;;3.65;3.35;;;;;;;;;;5074382;28;20619;-79
2022/05/02 03:48:38;;;;;;;3.60;3.35;;;;;;;;;;5074552;28;20201;-79
2022/05/02 03:51:07;;;;;;;4.35;3.95;;;;;;;;;;5074176;28;20212;-79
2022/05/02 03:53:34;;;;;;;3.97;3.53;;;;;;;;;;5073359;28;20201;-78
2022/05/02 03:56:01;;;;;;;3.65;3.17;;;;;;;;;;5073937;28;20193;-79
2022/05/02 03:58:29;;;;;;;2.95;2.70;;;;;;;;;;5073488;28;20221;-79
2022/05/02 04:00:56;;;;;;;3.20;3.00;;;;;;;;;;5074113;28;20599;-78
2022/05/02 04:03:23;;;;;;;3.88;3.50;;;;;;;;;;5072464;28;20277;-80
2022/05/02 04:05:52;;;;;;;5.10;3.50;;;;;;;;;;5074034;28;20244;-79
2022/05/02 04:08:20;;;;;;;4.05;3.72;;;;;;;;;;5073120;28;20227;-79
2022/05/02 04:10:47;;;;;;;3.83;3.20;;;;;;;;;;5073168;28;20258;-80
2022/05/02 04:13:14;;;;;;;3.00;2.80;;;;;;;;;;5073343;28;20205;-79
2022/05/02 04:15:42;;;;;;;3.35;3.15;;;;;;;;;;5074046;28;20204;-80
2022/05/02 04:18:09;;;;;;;3.72;3.40;;;;;;;;;;5073796;28;20275;-80
2022/05/02 04:20:36;;;;;;;3.60;3.30;;;;;;;;;;5071966;28;20266;-79
2022/05/02 04:23:05;;;;;;;3.33;3.03;;;;;;;;;;5072550;28;20267;-80
2022/05/02 04:25:33;;;;;;;3.15;2.90;;;;;;;;;;5072958;28;20239;-80
2022/05/02 04:28:00;;;;;;;3.28;3.05;;;;;;;;;;5072723;28;20193;-78
2022/05/02 04:30:28;;;;;;;2.33;2.15;;;;;;;;;;5072550;28;20271;-79
2022/05/02 04:32:55;;;;;;;4.82;3.72;;;;;;;;;;5072459;28;20292;-79
2022/05/02 04:35:22;;;;;;;4.22;3.92;;;;;;;;;;5074137;28;20673;-79
2022/05/02 04:37:49;;;;;;;3.63;3.33;;;;;;;;;;5073859;28;20216;-79
2022/05/02 04:40:18;;;;;;;3.28;2.92;;;;;;;;;;5074148;28;20220;-79
2022/05/02 04:42:46;;;;;;;3.17;2.67;;;;;;;;;;5073073;28;20595;-79
2022/05/02 04:45:13;;;;;;;3.28;3.00;;;;;;;;;;5074073;28;20196;-80
2022/05/02 04:47:41;;;;;;;2.95;2.75;;;;;;;;;;5073096;28;20200;-79
2022/05/02 04:50:09;;;;;;;2.47;2.38;;;;;;;;;;5073964;28;20216;-80
2022/05/02 04:52:36;;;;;;;3.30;3.10;;;;;;;;;;5074964;28;20208;-79
2022/05/02 04:55:04;;;;;;;3.13;2.90;;;;;;;;;;5073182;28;20216;-79
2022/05/02 04:57:33;;;;;;;3.00;2.80;;;;;;;;;;5072934;28;20224;-80
2022/05/02 05:00:00;;;;;;;3.58;2.30;;;;;;;;;;5073746;28;20645;-80
2022/05/02 05:02:27;;;;;;;2.72;2.53;;;;;;;;;;5072153;28;20204;-79
2022/05/02 05:04:54;;;;;;;2.15;2.05;;;;;;;;;;5073428;28;20197;-80
2022/05/02 05:07:22;;;;;;;2.47;2.28;;;;;;;;;;5074162;28;20263;-79
2022/05/02 05:09:49;;;;;;;3.17;2.58;;;;;;;;;;5071395;28;20635;-77
2022/05/02 05:12:35;;;;;;;2.70;2.50;;;;;;;;;;5070933;28;20208;-78
2022/05/02 05:18:13;;;;;;;3.40;3.00;;;;;;;;;;5071251;28;20697;-77
2022/05/02 05:20:50;;;;;;;3.45;2.90;;;;;;;;;;5071500;28;20224;-77
2022/05/02 05:23:32;;;;;;;3.55;3.25;;;;;;;;;;5069232;28;20189;-77
2022/05/02 05:26:08;;;;;;;3.08;2.85;;;;;;;;;;5065607;28;20203;-76
2022/05/02 05:28:56;;;;;;;2.67;2.47;;;;;;;;;;5074262;28;20197;-77
2022/05/02 05:31:36;;;;;;;3.03;2.83;;;;;;;;;;5069586;28;20251;-77
2022/05/02 05:34:07;;;;;;;2.78;2.45;;;;;;;;;;5073557;28;20204;-77
2022/05/02 05:36:55;;;;;;;2.10;1.92;;;;;;;;;;5075198;28;20300;-77
2022/05/02 05:39:33;;;;;;;3.13;2.92;;;;;;;;;;5074293;28;20262;-77
2022/05/02 05:42:09;;;;;;;2.50;2.30;;;;;;;;;;5073678;28;20228;-77
2022/05/02 05:44:51;;;;;;;2.90;2.67;;;;;;;;;;5071838;28;20254;-78
2022/05/02 05:47:33;;;;;;;2.40;2.20;;;;;;;;;;5073836;28;20212;-78
2022/05/02 05:50:11;;;;;;;3.60;3.30;;;;;;;;;;5074278;28;20313;-78
2022/05/02 05:52:55;;;;;;;3.33;3.03;;;;;;;;;;5073421;28;20201;-77
2022/05/02 05:55:28;;;;;;;2.88;2.67;;;;;;;;;;5073101;28;20205;-77
2022/05/02 05:58:09;;;;;;;3.13;2.83;;;;;;;;;;5073831;28;20215;-77
2022/05/02 06:00:44;;;;;;;3.15;2.85;;;;;;;;;;5073784;28;20271;-77
2022/05/02 06:03:15;;;;;;;2.67;2.47;;;;;;;;;;5072545;28;20291;-78
2022/05/02 06:05:44;;;;;;;2.75;2.55;;;;;;;;;;5074833;28;20211;-78
2022/05/02 06:08:16;;;;;;;3.15;2.85;;;;;;;;;;5073726;28;20196;-78
2022/05/02 06:10:44;;;;;;;3.60;2.90;;;;;;;;;;5066460;28;20228;-78
2022/05/02 06:13:11;;;;;;;2.72;2.53;;;;;;;;;;5067194;28;20221;-78
2022/05/02 06:18:30;;;;;;;2.70;2.50;;;;;;;;;;5074073;28;20593;-78
2022/05/02 06:21:00;;;;;;;3.25;2.83;;;;;;;;;;5074185;28;20228;-78
2022/05/02 06:23:30;;;;;;;3.60;3.33;;;;;;;;;;5073042;28;20229;-78
2022/05/02 06:25:57;;;;;;;3.33;2.88;;;;;;;;;;5073754;28;20250;-78
2022/05/02 06:28:30;;;;;;;3.60;3.30;;;;;;;;;;5073464;28;20208;-78
2022/05/02 06:31:01;;;;;;;5.45;3.95;;;;;;;;;;5074075;28;20312;-78
2022/05/02 06:33:29;;;;;;;4.15;3.75;;;;;;;;;;5073386;28;20209;-77
2022/05/02 06:36:25;;;;;;;5.50;4.78;;;;;;;;;;5073923;28;20197;-79
2022/05/02 06:39:03;;;;;;;6.50;3.75;;;;;;;;;;5069202;28;20217;-77
2022/05/02 06:41:51;;;;;;;3.55;3.25;;;;;;;;;;5073676;28;20228;-77
2022/05/02 06:44:27;;;;;;;2.92;2.60;;;;;;;;;;5073549;28;20221;-79
2022/05/02 06:47:03;;;;;;;4.18;3.70;;;;;;;;;;5066865;28;20640;-79
2022/05/02 06:49:34;;;;;;;3.40;3.10;;;;;;;;;;5070528;28;20201;-78
2022/05/02 06:52:09;;;;;;;4.10;3.80;;;;;;;;;;5067682;28;20296;-78
2022/05/02 06:54:51;;;;;;;3.28;3.08;;;;;;;;;;5069363;28;20254;-79
2022/05/02 06:57:33;;;;;;;4.13;3.75;;;;;;;;;;5073735;28;20643;-79
2022/05/02 07:00:05;;;;;;;4.07;3.10;;;;;;;;;;5073774;28;20229;-79
2022/05/02 07:03:04;;;;;;;2.65;2.45;;;;;;;;;;5068864;28;20914;-77
2022/05/02 07:05:44;;;;;;;5.32;3.55;;;;;;;;;;5044200;28;20216;-79
2022/05/02 07:08:11;;;;;;;4.00;3.70;;;;;;;;;;5070830;28;20293;-80
2022/05/02 07:10:41;;;;;;;3.50;3.20;;;;;;;;;;5070708;28;20354;-79
2022/05/02 07:13:22;;;;;;;3.85;3.55;;;;;;;;;;5069443;28;20205;-79
2022/05/02 07:15:52;;;;;;;3.90;3.60;;;;;;;;;;5070757;28;20197;-79
2022/05/02 07:18:49;;;;;;;3.42;3.22;;;;;;;;;;5072250;28;20267;-79
2022/05/02 07:21:39;;;;;;;4.13;3.75;;;;;;;;;;5071297;28;20229;-79
2022/05/02 07:24:22;;;;;;;4.03;3.45;;;;;;;;;;5072405;28;20232;-79
2022/05/02 07:26:59;;;;;;;3.35;3.15;;;;;;;;;;5072418;28;20197;-79
2022/05/02 07:29:26;;;;;;;4.85;4.32;;;;;;;;;;5072750;28;20677;-79
2022/05/02 07:31:53;;;;;;;5.93;3.47;;;;;;;;;;5071979;28;20287;-79
2022/05/02 07:34:22;;;;;;;3.13;2.92;;;;;;;;;;5072820;28;20204;-79
2022/05/02 07:36:52;;;;;;;4.25;3.95;;;;;;;;;;5073484;28;20829;-79
2022/05/02 07:39:22;;;;;;;3.38;3.10;;;;;;;;;;5072604;28;20270;-79
2022/05/02 07:41:51;;;;;;;3.50;3.15;;;;;;;;;;5065552;28;20286;-79
2022/05/02 07:44:20;;;;;;;4.03;3.70;;;;;;;;;;5066930;28;20240;-79
2022/05/02 07:46:49;;;;;;;4.13;3.70;;;;;;;;;;5072017;28;20278;-84
2022/05/02 07:49:21;;;;;;;3.80;3.50;;;;;;;;;;5071185;28;20193;-79
2022/05/02 07:51:51;;;;;;;4.05;3.22;;;;;;;;;;5071957;28;20334;-80
2022/05/02 07:54:22;;;;;;;3.60;3.30;;;;;;;;;;5072468;28;20205;-79
2022/05/02 07:56:52;;;;;;;3.72;3.42;;;;;;;;;;5072175;28;20666;-79
2022/05/02 07:59:24;;;;;;;3.05;2.80;;;;;;;;;;5072723;28;20252;-80
2022/05/02 08:01:52;;;;;;;3.70;3.40;;;;;;;;;;5072127;28;20220;-79
2022/05/02 08:04:20;;;;;;;3.58;3.30;;;;;;;;;;5072767;28;20209;-79
2022/05/02 08:07:11;;;;;;;3.90;3.60;;;;;;;;;;5072089;28;20725;-78
2022/05/02 08:10:30;;;;;;;4.85;3.90;;;;;;;;;;5071390;28;20254;-79
2022/05/02 08:13:00;;;;;;;6.43;3.08;;;;;;;;;;5071245;28;20279;-79
2022/05/02 08:15:33;;;;;;;3.85;3.55;;;;;;;;;;5072850;28;20216;-79
2022/05/02 08:18:20;;;;;;;2.92;2.72;;;;;;;;;;5068188;28;20631;-79
2022/05/02 08:20:52;;;;;;;3.20;3.00;;;;;;;;;;5072402;28;20236;-81
2022/05/02 08:29:45;;;;;;;3.58;3.25;;;;;;;;;;5072039;28;20211;-79
2022/05/02 08:32:22;;;;;;;3.25;2.95;;;;;;;;;;5072300;28;20209;-80
2022/05/02 08:35:03;;;;;;;3.70;3.40;;;;;;;;;;5071737;28;20208;-79
2022/05/02 08:38:09;;;;;;;3.38;3.08;;;;;;;;;;5070829;28;20201;-79
2022/05/02 08:41:11;;;;;;;3.75;3.25;;;;;;;;;;5063493;28;20234;-80
2022/05/02 08:44:20;;;;;;;3.58;3.28;;;;;;;;;;5068473;28;20196;-80
2022/05/02 08:47:37;;;;;;;5.25;3.83;;;;;;;;;;5050125;28;20581;-79
2022/05/02 08:50:27;;;;;;;2.80;2.60;;;;;;;;;;5066513;28;20224;-79
2022/05/02 08:53:14;;;;;;;4.00;3.38;;;;;;;;;;5072205;28;20205;-80
2022/05/02 08:56:07;;;;;;;3.58;3.33;;;;;;;;;;5071306;28;20197;-81
2022/05/02 08:59:13;;;;;;;3.50;3.20;;;;;;;;;;5072281;28;20204;-80
2022/05/02 09:02:08;;;;;;;4.95;3.80;;;;;;;;;;5074257;28;20303;-79
2022/05/02 09:05:34;;;;;;;3.65;3.15;;;;;;;;;;5075253;28;20291;-80
2022/05/02 09:08:47;;;;;;;2.88;2.60;;;;;;;;;;5071730;28;20205;-80
2022/05/02 09:11:37;;;;;;;3.08;2.85;;;;;;;;;;5068869;28;20221;-80
2022/05/02 09:15:18;;;;;;;4.15;3.75;;;;;;;;;;5072008;28;20335;-84
2022/05/02 09:18:35;;;;;;;2.85;2.65;;;;;;;;;;5013076;28;20203;-80
2022/05/02 09:21:15;;;;;;;3.28;2.95;;;;;;;;;;4993408;28;20227;-80
2022/05/02 09:24:25;;;;;;;2.65;2.45;;;;;;;;;;5070372;28;20209;-81
2022/05/02 09:27:25;;;;;;;3.55;3.25;;;;;;;;;;5066800;28;20710;-79
2022/05/02 09:30:41;;;;;;;3.20;3.00;;;;;;;;;;5076592;28;20247;-78
2022/05/02 09:33:36;;;;;;;5.47;4.13;;;;;;;;;;5072698;28;20296;-79
2022/05/02 09:36:25;;;;;;;3.17;2.88;;;;;;;;;;5074776;28;20538;-79
2022/05/02 09:39:01;;;;;;;4.95;4.55;;;;;;;;;;5073133;28;20278;-78
2022/05/02 09:41:57;;;;;;;4.60;4.20;;;;;;;;;;5073953;28;20224;-79
2022/05/02 09:51:09;;;;;;;3.53;3.22;;;;;;;;;;5073099;28;20231;-78
2022/05/02 09:53:48;;;;;;;4.57;3.63;;;;;;;;;;5073526;28;20270;-77
2022/05/02 09:56:38;;;;;;;5.05;4.65;;;;;;;;;;5072553;28;20669;-79
2022/05/02 09:59:09;;;;;;;4.15;3.75;;;;;;;;;;5069686;28;20193;-78
2022/05/02 10:01:42;;;;;;;3.47;3.20;;;;;;;;;;5073432;28;20229;-78
2022/05/02 10:04:34;;;;;;;3.70;3.13;;;;;;;;;;5073555;28;20201;-78
2022/05/02 10:07:07;;;;;;;3.55;3.25;;;;;;;;;;5073556;28;20200;-78
2022/05/02 10:10:02;;;;;;;2.85;2.55;;;;;;;;;;5068036;28;20201;-79
2022/05/02 10:12:43;;;;;;;2.50;2.30;;;;;;;;;;5073856;28;20198;-79
2022/05/02 10:15:32;;;;;;;2.65;2.25;;;;;;;;;;5076668;28;20200;-80
2022/05/02 10:18:53;;;;;;;4.38;3.33;;;;;;;;;;5075425;28;20661;-79
2022/05/02 10:21:40;;;;;;;3.83;3.42;;;;;;;;;;5041900;28;20652;-80
2022/05/02 10:24:30;;;;;;;2.80;2.60;;;;;;;;;;5074844;28;20285;-80
2022/05/02 10:27:16;;;;;;;2.58;2.38;;;;;;;;;;5074458;28;20207;-79
2022/05/02 10:30:08;;;;;;;3.67;2.97;;;;;;;;;;5077232;28;20685;-80
2022/05/02 10:32:45;;;;;;;3.95;3.40;;;;;;;;;;5072796;28;20201;-79
2022/05/02 10:35:15;;;;;;;3.13;2.85;;;;;;;;;;5074937;28;20201;-79
2022/05/02 10:37:54;;;;;;;4.30;4.00;;;;;;;;;;5075080;28;20603;-79
2022/05/02 10:40:39;;;;;;;4.10;3.80;;;;;;;;;;5075645;28;20294;-80
2022/05/02 10:43:09;;;;;;;3.30;2.85;;;;;;;;;;5074317;28;20213;-79
2022/05/02 10:45:38;;;;;;;2.88;2.60;;;;;;;;;;5073063;28;20247;-79
2022/05/02 10:48:16;;;;;;;3.50;3.20;;;;;;;;;;5070301;28;20209;-80
2022/05/02 10:50:51;;;;;;;3.28;2.97;;;;;;;;;;5073295;28;20631;-79
2022/05/02 10:54:09;;;;;;;2.80;2.60;;;;;;;;;;5072423;28;20216;-80
2022/05/02 10:56:43;;;;;;;2.50;2.30;;;;;;;;;;5070699;28;20217;-79
2022/05/02 10:59:14;;;;;;;3.33;3.13;;;;;;;;;;5074828;28;20207;-79
2022/05/02 11:02:15;;;;;;;2.90;2.70;;;;;;;;;;5074081;28;20267;-79
2022/05/02 11:05:03;;;;;;;3.30;3.10;;;;;;;;;;5070041;28;20212;-79
2022/05/02 11:07:50;;;;;;;3.72;3.42;;;;;;;;;;5074732;28;20316;-79
2022/05/02 11:10:22;;;;;;;3.35;3.15;;;;;;;;;;5074291;28;20286;-79
2022/05/02 11:12:58;;;;;;;4.13;3.72;;;;;;;;;;5073761;28;20221;-80
2022/05/02 11:15:30;;;;;;;2.90;2.70;;;;;;;;;;5074554;28;20207;-79
2022/05/02 11:18:07;;;;;;;2.78;2.58;;;;;;;;;;5074510;28;20209;-79
2022/05/02 11:20:43;;;;;;;2.75;2.55;;;;;;;;;;5074387;28;20224;-79
2022/05/02 11:23:47;;;;;;;4.10;3.78;;;;;;;;;;5073507;28;20216;-79
2022/05/02 11:26:27;;;;;;;3.55;3.25;;;;;;;;;;5071045;28;20208;-79
2022/05/02 11:29:09;;;;;;;3.63;3.38;;;;;;;;;;5074340;28;20204;-79
2022/05/02 11:31:41;;;;;;;3.10;2.13;;;;;;;;;;5067044;28;20229;-79
2022/05/02 11:34:29;;;;;;;2.30;2.20;;;;;;;;;;5074227;28;20209;-79
2022/05/02 11:36:58;;;;;;;2.75;2.55;;;;;;;;;;5074297;28;20209;-79
2022/05/02 11:39:46;;;;;;;3.03;2.83;;;;;;;;;;5074140;28;20209;-79
2022/05/02 11:42:15;;;;;;;3.75;3.50;;;;;;;;;;5066823;28;20239;-79
2022/05/02 11:44:53;;;;;;;3.55;3.25;;;;;;;;;;5068050;28;20220;-79
2022/05/02 11:47:31;;;;;;;2.15;2.05;;;;;;;;;;5068353;28;20558;-80
2022/05/02 11:50:05;;;;;;;1.98;1.88;;;;;;;;;;5073801;28;20252;-80
2022/05/02 11:52:35;;;;;;;2.70;2.50;;;;;;;;;;5073132;28;20660;-80
2022/05/02 11:55:07;;;;;;;2.42;2.33;;;;;;;;;;5073484;28;20200;-80
2022/05/02 11:57:39;;;;;;;2.70;2.50;;;;;;;;;;5073403;28;20262;-79
2022/05/02 12:00:11;;;;;;;2.80;2.60;;;;;;;;;;5073450;28;20779;-80
2022/05/02 12:02:51;;;;;;;2.35;2.20;;;;;;;;;;5072887;28;20252;-80
2022/05/02 12:05:40;;;;;;;1.85;1.75;;;;;;;;;;5076134;28;20208;-80
2022/05/02 12:08:11;;;;;;;2.10;2.00;;;;;;;;;;5073459;28;20358;-80
2022/05/02 12:10:41;;;;;;;1.77;1.63;;;;;;;;;;5073312;28;20228;-79
2022/05/02 12:13:11;;;;;;;2.88;2.65;;;;;;;;;;5072795;28;20197;-80
2022/05/02 12:15:59;;;;;;;2.90;2.70;;;;;;;;;;5073754;28;20591;-82
2022/05/02 12:18:42;;;;;;;3.38;3.08;;;;;;;;;;5073615;28;20196;-79
2022/05/02 12:21:12;;;;;;;3.78;2.80;;;;;;;;;;5072911;28;20231;-79
2022/05/02 12:23:43;;;;;;;3.90;3.58;;;;;;;;;;5072858;28;20207;-79
2022/05/02 12:26:21;;;;;;;2.88;2.67;;;;;;;;;;5070309;28;20205;-79
2022/05/02 12:28:51;;;;;;;2.50;2.30;;;;;;;;;;5073131;28;20216;-80
2022/05/02 12:31:24;;;;;;;2.13;1.90;;;;;;;;;;5073064;28;20224;-79
2022/05/02 12:34:02;;;;;;;2.47;2.13;;;;;;;;;;5072079;28;20209;-79
2022/05/02 12:36:39;;;;;;;2.45;2.35;;;;;;;;;;5072569;28;20208;-79
2022/05/02 12:39:10;;;;;;;2.20;2.10;;;;;;;;;;5072857;28;20647;-80
2022/05/02 12:41:47;;;;;;;3.17;2.50;;;;;;;;;;5072139;28;20270;-79
2022/05/02 12:44:16;;;;;;;3.10;2.90;;;;;;;;;;5072461;28;20200;-79
2022/05/02 12:46:47;;;;;;;2.40;2.28;;;;;;;;;;5071994;28;20300;-80
2022/05/02 12:49:24;;;;;;;2.85;2.60;;;;;;;;;;5073426;28;20251;-80
2022/05/02 12:51:53;;;;;;;2.30;2.10;;;;;;;;;;5071985;28;20589;-79
2022/05/02 12:54:22;;;;;;;2.40;2.17;;;;;;;;;;5072328;28;20589;-78
2022/05/02 13:02:41;;;;;;;2.40;2.20;;;;;;;;;;5071780;28;20235;-79
2022/05/02 13:05:12;;;;;;;3.35;2.85;;;;;;;;;;5066277;28;20688;-79
2022/05/02 13:07:47;;;;;;;2.55;2.35;;;;;;;;;;5072536;28;20247;-78
2022/05/02 13:10:22;;;;;;;3.05;2.83;;;;;;;;;;5072785;28;20529;-79
2022/05/02 13:13:02;;;;;;;2.13;2.03;;;;;;;;;;5071238;28;20204;-78
2022/05/02 13:15:33;;;;;;;1.50;1.40;;;;;;;;;;5072698;28;20208;-79
2022/05/02 13:18:03;;;;;;;1.90;1.80;;;;;;;;;;5072438;28;20201;-79
2022/05/02 13:20:31;;;;;;;2.10;2.00;;;;;;;;;;5072442;28;20611;-79
2022/05/02 13:23:03;;;;;;;2.50;2.30;;;;;;;;;;5071254;28;20236;-79
2022/05/02 13:26:01;;;;;;;2.42;2.22;;;;;;;;;;5071975;28;20205;-79
2022/05/02 13:28:43;;;;;;;2.22;2.08;;;;;;;;;;5072288;28;20216;-79
2022/05/02 13:31:18;;;;;;;2.60;2.40;;;;;;;;;;5072254;28;20231;-79
2022/05/02 13:33:53;;;;;;;2.92;2.50;;;;;;;;;;5071153;28;20205;-79
2022/05/02 13:36:23;;;;;;;2.83;2.63;;;;;;;;;;5072372;28;20223;-79
2022/05/02 13:39:03;;;;;;;2.17;2.00;;;;;;;;;;5072162;28;20205;-79
2022/05/02 13:41:37;;;;;;;2.22;2.13;;;;;;;;;;5072180;28;20228;-79
2022/05/02 13:44:21;;;;;;;2.90;2.70;;;;;;;;;;5071489;28;20220;-79
2022/05/02 13:46:55;;;;;;;2.60;2.40;;;;;;;;;;5071137;28;20207;-78
2022/05/02 13:49:50;;;;;;;2.38;2.17;;;;;;;;;;5075414;28;20264;-79
2022/05/02 13:52:31;;;;;;;3.00;2.80;;;;;;;;;;5075601;28;20209;-80
2022/05/02 13:55:07;;;;;;;2.78;2.58;;;;;;;;;;5075663;28;20211;-78
2022/05/02 13:57:44;;;;;;;2.03;1.92;;;;;;;;;;5075301;28;20633;-79
2022/05/02 14:03:16;;;;;;;2.63;2.42;;;;;;;;;;5072642;28;20595;-78
2022/05/02 14:05:57;;;;;;;4.15;3.22;;;;;;;;;;5074801;28;20209;-79
2022/05/02 14:08:30;;;;;;;2.95;2.65;;;;;;;;;;5075080;28;20209;-79
2022/05/02 14:10:58;;;;;;;2.63;2.45;;;;;;;;;;5074287;28;20229;-79
2022/05/02 14:13:27;;;;;;;1.95;1.85;;;;;;;;;;5073105;28;20247;-79
2022/05/02 14:16:04;;;;;;;2.47;2.25;;;;;;;;;;5074320;28;20626;-79
2022/05/02 14:18:50;;;;;;;2.33;2.08;;;;;;;;;;5074429;28;20312;-79
2022/05/02 14:21:19;;;;;;;2.72;2.53;;;;;;;;;;5074705;28;20289;-79
2022/05/02 14:23:49;;;;;;;2.33;2.20;;;;;;;;;;5073184;28;20236;-79
2022/05/02 14:26:17;;;;;;;3.38;3.17;;;;;;;;;;5074744;28;20209;-79
2022/05/02 14:28:49;;;;;;;2.80;2.60;;;;;;;;;;5074592;28;20223;-79
2022/05/02 14:31:21;;;;;;;2.08;1.98;;;;;;;;;;5068101;28;20224;-79
2022/05/02 14:33:49;;;;;;;2.45;2.25;;;;;;;;;;5067652;28;20201;-78
2022/05/02 14:36:18;;;;;;;2.15;2.05;;;;;;;;;;5074652;28;20208;-79
2022/05/02 14:38:47;;;;;;;2.80;2.60;;;;;;;;;;5074267;28;20197;-79
2022/05/02 14:41:15;;;;;;;2.20;2.10;;;;;;;;;;5074308;28;20736;-79
2022/05/02 14:43:42;;;;;;;2.90;2.70;;;;;;;;;;5073606;28;20231;-79
2022/05/02 14:46:10;;;;;;;2.70;2.50;;;;;;;;;;5073971;28;20201;-78
2022/05/02 14:48:39;;;;;;;2.60;2.40;;;;;;;;;;5073925;28;20770;-79
2022/05/02 14:51:08;;;;;;;2.50;2.30;;;;;;;;;;5074107;28;20647;-78
2022/05/02 14:53:41;;;;;;;3.17;2.88;;;;;;;;;;5073432;28;20212;-78
2022/05/02 14:56:13;;;;;;;3.65;3.05;;;;;;;;;;5073547;28;20212;-78
2022/05/02 14:58:42;;;;;;;2.40;2.20;;;;;;;;;;5073960;28;20240;-79
2022/05/02 15:01:13;;;;;;;2.53;2.33;;;;;;;;;;5074432;28;20228;-78
2022/05/02 15:03:46;;;;;;;1.90;1.80;;;;;;;;;;5073515;28;20224;-79
2022/05/02 15:06:16;;;;;;;2.85;2.65;;;;;;;;;;5073989;28;20692;-79
2022/05/02 15:12:17;;;;;;;2.28;1.90;;;;;;;;;;5072160;28;20724;-78
2022/05/02 15:15:04;;;;;;;2.15;1.98;;;;;;;;;;5067661;28;20263;-79
2022/05/02 15:17:31;;;;;;;1.83;1.73;;;;;;;;;;5070292;28;20665;-80
2022/05/02 15:20:17;;;;;;;1.60;1.50;;;;;;;;;;5074053;28;20286;-79
2022/05/02 15:22:51;;;;;;;1.38;1.30;;;;;;;;;;5072537;28;20626;-79
2022/05/02 15:25:20;;;;;;;1.65;1.52;;;;;;;;;;5074003;28;20634;-80
2022/05/02 15:36:46;;;;;;;2.83;2.63;;;;;;;;;;5073793;28;20318;-79
2022/05/02 15:39:26;;;;;;;2.80;2.60;;;;;;;;;;5073603;28;20208;-79
2022/05/02 15:42:03;;;;;;;1.73;1.63;;;;;;;;;;5072787;28;20282;-79
2022/05/02 15:44:45;;;;;;;1.60;1.50;;;;;;;;;;5073207;28;20323;-80
2022/05/02 15:47:16;;;;;;;2.40;2.30;;;;;;;;;;5073118;28;20673;-79
2022/05/02 15:49:47;;;;;;;2.83;2.58;;;;;;;;;;5072716;28;20212;-79
2022/05/02 15:52:17;;;;;;;2.72;2.53;;;;;;;;;;5072046;28;20586;-79
2022/05/02 15:55:04;;;;;;;3.10;2.30;;;;;;;;;;5072816;28;20680;-79
2022/05/02 15:57:38;;;;;;;4.07;2.28;;;;;;;;;;5072756;28;20677;-79
2022/05/02 16:00:24;;;;;;;3.03;2.83;;;;;;;;;;5072907;28;20225;-79
2022/05/02 16:03:19;;;;;;;2.38;2.25;;;;;;;;;;5072480;28;20262;-80
2022/05/02 16:06:04;;;;;;;2.83;2.63;;;;;;;;;;5067713;28;20209;-80
2022/05/02 16:11:20;;;;;;;1.60;1.50;;;;;;;;;;5072315;28;20305;-80
2022/05/02 16:13:49;;;;;;;1.95;1.85;;;;;;;;;;5064937;28;20661;-80
2022/05/02 16:16:21;;;;;;;2.50;2.30;;;;;;;;;;5066706;28;20219;-80
2022/05/02 16:18:52;;;;;;;1.92;1.83;;;;;;;;;;5072608;28;20578;-79
2022/05/02 16:21:23;;;;;;;2.38;2.17;;;;;;;;;;5072675;28;20651;-79